sensor_id;sensor_type;location;lat;lon;timestamp;P1;durP1;ratioP1;P2;durP2;ratioP2
47153;SDS011;32907;41.412;2.164;2023-02-03T00:00:00;12.63;;;10.48;;
47153;SDS011;32907;41.412;2.164;2023-02-03T00:05:08;10.77;;;9.00;;
47153;SDS011;32907;41.412;2.164;2023-02-03T00:07:37;11.30;;;8.85;;
47153;SDS011;32907;41.412;2.164;2023-02-03T00:10:06;13.38;;;10.05;;
47153;SDS011;32907;41.412;2.164;2023-02-03T00:12:35;12.85;;;9.68;;
47153;SDS011;32907;41.412;2.164;2023-02-03T00:15:03;11.82;;;8.98;;
47153;SDS011;32907;41.412;2.164;2023-02-03T00:17:31;11.02;;;9.65;;
47153;SDS011;32907;41.412;2.164;2023-02-03T00:19:59;11.13;;;9.27;;
47153;SDS011;32907;41.412;2.164;2023-02-03T00:22:26;11.23;;;9.40;;
47153;SDS011;32907;41.412;2.164;2023-02-03T00:24:54;11.32;;;9.98;;
47153;SDS011;32907;41.412;2.164;2023-02-03T00:27:22;11.23;;;10.02;;
47153;SDS011;32907;41.412;2.164;2023-02-03T00:29:50;12.05;;;9.30;;
47153;SDS011;32907;41.412;2.164;2023-02-03T00:32:17;11.35;;;9.10;;
47153;SDS011;32907;41.412;2.164;2023-02-03T00:34:46;11.13;;;9.25;;
47153;SDS011;32907;41.412;2.164;2023-02-03T00:37:13;11.15;;;9.35;;
47153;SDS011;32907;41.412;2.164;2023-02-03T00:39:41;12.60;;;9.43;;
47153;SDS011;32907;41.412;2.164;2023-02-03T00:42:09;10.75;;;9.20;;
47153;SDS011;32907;41.412;2.164;2023-02-03T00:44:37;12.00;;;9.13;;
47153;SDS011;32907;41.412;2.164;2023-02-03T00:47:05;11.40;;;9.18;;
47153;SDS011;32907;41.412;2.164;2023-02-03T00:49:33;14.50;;;10.18;;
47153;SDS011;32907;41.412;2.164;2023-02-03T00:52:01;12.95;;;10.20;;
47153;SDS011;32907;41.412;2.164;2023-02-03T00:54:29;12.73;;;9.73;;
47153;SDS011;32907;41.412;2.164;2023-02-03T00:56:59;13.45;;;10.10;;
47153;SDS011;32907;41.412;2.164;2023-02-03T00:59:27;13.50;;;9.80;;
47153;SDS011;32907;41.412;2.164;2023-02-03T01:01:55;14.18;;;10.40;;
47153;SDS011;32907;41.412;2.164;2023-02-03T01:04:23;12.10;;;9.95;;
47153;SDS011;32907;41.412;2.164;2023-02-03T01:06:54;11.27;;;9.02;;
47153;SDS011;32907;41.412;2.164;2023-02-03T01:09:23;11.13;;;9.02;;
47153;SDS011;32907;41.412;2.164;2023-02-03T01:11:53;11.57;;;10.00;;
47153;SDS011;32907;41.412;2.164;2023-02-03T01:14:21;11.80;;;9.27;;
47153;SDS011;32907;41.412;2.164;2023-02-03T01:16:49;11.73;;;9.13;;
47153;SDS011;32907;41.412;2.164;2023-02-03T01:19:17;11.30;;;9.52;;
47153;SDS011;32907;41.412;2.164;2023-02-03T01:21:45;10.63;;;8.82;;
47153;SDS011;32907;41.412;2.164;2023-02-03T01:24:14;10.13;;;7.93;;
47153;SDS011;32907;41.412;2.164;2023-02-03T01:26:42;11.20;;;9.05;;
47153;SDS011;32907;41.412;2.164;2023-02-03T01:29:10;12.02;;;9.20;;
47153;SDS011;32907;41.412;2.164;2023-02-03T01:31:38;11.48;;;9.15;;
47153;SDS011;32907;41.412;2.164;2023-02-03T01:34:12;9.77;;;8.55;;
47153;SDS011;32907;41.412;2.164;2023-02-03T01:36:42;11.98;;;9.10;;
47153;SDS011;32907;41.412;2.164;2023-02-03T01:39:12;11.68;;;8.40;;
47153;SDS011;32907;41.412;2.164;2023-02-03T01:41:41;10.43;;;8.05;;
47153;SDS011;32907;41.412;2.164;2023-02-03T01:47:12;9.45;;;7.28;;
47153;SDS011;32907;41.412;2.164;2023-02-03T01:49:55;9.45;;;7.45;;
47153;SDS011;32907;41.412;2.164;2023-02-03T01:52:30;10.02;;;7.40;;
47153;SDS011;32907;41.412;2.164;2023-02-03T01:55:02;10.38;;;7.80;;
47153;SDS011;32907;41.412;2.164;2023-02-03T01:57:42;9.38;;;7.50;;
47153;SDS011;32907;41.412;2.164;2023-02-03T02:00:24;9.73;;;7.85;;
47153;SDS011;32907;41.412;2.164;2023-02-03T02:02:54;8.80;;;7.35;;
47153;SDS011;32907;41.412;2.164;2023-02-03T02:05:35;9.75;;;8.25;;
47153;SDS011;32907;41.412;2.164;2023-02-03T02:08:11;11.07;;;9.32;;
47153;SDS011;32907;41.412;2.164;2023-02-03T02:10:41;10.25;;;8.32;;
47153;SDS011;32907;41.412;2.164;2023-02-03T02:13:09;11.88;;;8.98;;
47153;SDS011;32907;41.412;2.164;2023-02-03T02:15:43;11.27;;;8.05;;
47153;SDS011;32907;41.412;2.164;2023-02-03T02:18:43;11.40;;;8.05;;
47153;SDS011;32907;41.412;2.164;2023-02-03T02:32:04;10.23;;;7.47;;
47153;SDS011;32907;41.412;2.164;2023-02-03T02:40:08;9.65;;;7.82;;
47153;SDS011;32907;41.412;2.164;2023-02-03T02:45:34;11.02;;;7.43;;
47153;SDS011;32907;41.412;2.164;2023-02-03T02:50:54;9.35;;;8.18;;
47153;SDS011;32907;41.412;2.164;2023-02-03T02:53:26;9.48;;;8.02;;
47153;SDS011;32907;41.412;2.164;2023-02-03T02:55:58;9.15;;;6.88;;
47153;SDS011;32907;41.412;2.164;2023-02-03T02:58:30;10.23;;;6.78;;
47153;SDS011;32907;41.412;2.164;2023-02-03T03:01:02;8.77;;;7.43;;
47153;SDS011;32907;41.412;2.164;2023-02-03T03:03:31;9.85;;;7.70;;
47153;SDS011;32907;41.412;2.164;2023-02-03T03:06:00;9.77;;;7.18;;
47153;SDS011;32907;41.412;2.164;2023-02-03T03:08:51;7.75;;;6.85;;
47153;SDS011;32907;41.412;2.164;2023-02-03T03:11:23;8.60;;;6.82;;
47153;SDS011;32907;41.412;2.164;2023-02-03T03:13:57;7.95;;;6.25;;
47153;SDS011;32907;41.412;2.164;2023-02-03T03:16:26;7.68;;;6.43;;
47153;SDS011;32907;41.412;2.164;2023-02-03T03:19:07;6.93;;;5.82;;
47153;SDS011;32907;41.412;2.164;2023-02-03T03:21:40;8.07;;;5.75;;
47153;SDS011;32907;41.412;2.164;2023-02-03T03:24:15;7.25;;;5.88;;
47153;SDS011;32907;41.412;2.164;2023-02-03T03:26:50;7.18;;;5.97;;
47153;SDS011;32907;41.412;2.164;2023-02-03T03:29:29;7.05;;;5.80;;
47153;SDS011;32907;41.412;2.164;2023-02-03T03:32:02;7.85;;;6.18;;
47153;SDS011;32907;41.412;2.164;2023-02-03T03:34:30;8.13;;;5.45;;
47153;SDS011;32907;41.412;2.164;2023-02-03T03:37:06;6.88;;;5.60;;
47153;SDS011;32907;41.412;2.164;2023-02-03T03:39:56;8.50;;;5.40;;
47153;SDS011;32907;41.412;2.164;2023-02-03T03:45:11;7.50;;;5.28;;
47153;SDS011;32907;41.412;2.164;2023-02-03T03:47:43;6.68;;;5.15;;
47153;SDS011;32907;41.412;2.164;2023-02-03T03:50:18;6.53;;;5.10;;
47153;SDS011;32907;41.412;2.164;2023-02-03T03:52:50;7.97;;;5.32;;
47153;SDS011;32907;41.412;2.164;2023-02-03T03:55:19;6.32;;;4.50;;
47153;SDS011;32907;41.412;2.164;2023-02-03T03:57:53;6.57;;;4.70;;
47153;SDS011;32907;41.412;2.164;2023-02-03T04:00:26;6.93;;;5.22;;
47153;SDS011;32907;41.412;2.164;2023-02-03T04:02:59;6.43;;;5.00;;
47153;SDS011;32907;41.412;2.164;2023-02-03T04:05:32;6.85;;;5.00;;
47153;SDS011;32907;41.412;2.164;2023-02-03T04:08:00;5.80;;;4.75;;
47153;SDS011;32907;41.412;2.164;2023-02-03T04:10:37;6.40;;;4.43;;
47153;SDS011;32907;41.412;2.164;2023-02-03T04:15:35;4.65;;;4.03;;
47153;SDS011;32907;41.412;2.164;2023-02-03T04:18:03;6.38;;;4.78;;
47153;SDS011;32907;41.412;2.164;2023-02-03T04:20:32;7.30;;;4.72;;
47153;SDS011;32907;41.412;2.164;2023-02-03T04:23:00;5.57;;;4.72;;
47153;SDS011;32907;41.412;2.164;2023-02-03T04:25:28;6.32;;;4.68;;
47153;SDS011;32907;41.412;2.164;2023-02-03T04:27:55;6.25;;;5.13;;
47153;SDS011;32907;41.412;2.164;2023-02-03T04:30:23;4.82;;;4.32;;
47153;SDS011;32907;41.412;2.164;2023-02-03T04:32:52;6.55;;;4.38;;
47153;SDS011;32907;41.412;2.164;2023-02-03T04:35:20;6.78;;;4.97;;
47153;SDS011;32907;41.412;2.164;2023-02-03T04:37:49;7.78;;;5.18;;
47153;SDS011;32907;41.412;2.164;2023-02-03T04:40:17;6.18;;;5.03;;
47153;SDS011;32907;41.412;2.164;2023-02-03T04:42:45;6.35;;;4.57;;
47153;SDS011;32907;41.412;2.164;2023-02-03T04:45:13;6.47;;;5.15;;
47153;SDS011;32907;41.412;2.164;2023-02-03T04:47:40;5.82;;;4.80;;
47153;SDS011;32907;41.412;2.164;2023-02-03T04:50:09;6.10;;;4.72;;
47153;SDS011;32907;41.412;2.164;2023-02-03T04:52:36;6.18;;;4.63;;
47153;SDS011;32907;41.412;2.164;2023-02-03T04:55:04;6.35;;;4.30;;
47153;SDS011;32907;41.412;2.164;2023-02-03T04:57:32;5.20;;;4.10;;
47153;SDS011;32907;41.412;2.164;2023-02-03T05:00:01;6.18;;;4.53;;
47153;SDS011;32907;41.412;2.164;2023-02-03T05:02:28;5.45;;;4.57;;
47153;SDS011;32907;41.412;2.164;2023-02-03T05:04:56;7.18;;;4.35;;
47153;SDS011;32907;41.412;2.164;2023-02-03T05:07:24;7.50;;;4.53;;
47153;SDS011;32907;41.412;2.164;2023-02-03T05:09:51;5.05;;;4.25;;
47153;SDS011;32907;41.412;2.164;2023-02-03T05:12:19;8.68;;;4.72;;
47153;SDS011;32907;41.412;2.164;2023-02-03T05:14:47;5.22;;;4.35;;
47153;SDS011;32907;41.412;2.164;2023-02-03T05:17:14;5.78;;;4.32;;
47153;SDS011;32907;41.412;2.164;2023-02-03T05:19:42;8.80;;;5.18;;
47153;SDS011;32907;41.412;2.164;2023-02-03T05:22:10;5.93;;;4.55;;
47153;SDS011;32907;41.412;2.164;2023-02-03T05:24:38;6.93;;;5.20;;
47153;SDS011;32907;41.412;2.164;2023-02-03T05:27:06;9.35;;;6.22;;
47153;SDS011;32907;41.412;2.164;2023-02-03T05:29:34;9.40;;;6.43;;
47153;SDS011;32907;41.412;2.164;2023-02-03T05:32:02;8.23;;;6.57;;
47153;SDS011;32907;41.412;2.164;2023-02-03T05:34:30;9.07;;;5.95;;
47153;SDS011;32907;41.412;2.164;2023-02-03T05:36:58;9.55;;;6.45;;
47153;SDS011;32907;41.412;2.164;2023-02-03T05:39:27;8.02;;;6.03;;
47153;SDS011;32907;41.412;2.164;2023-02-03T05:41:54;8.40;;;5.65;;
47153;SDS011;32907;41.412;2.164;2023-02-03T05:44:25;7.63;;;5.93;;
47153;SDS011;32907;41.412;2.164;2023-02-03T05:46:56;9.13;;;6.15;;
47153;SDS011;32907;41.412;2.164;2023-02-03T05:49:25;8.23;;;6.40;;
47153;SDS011;32907;41.412;2.164;2023-02-03T05:51:53;7.63;;;6.35;;
47153;SDS011;32907;41.412;2.164;2023-02-03T05:54:22;8.77;;;6.53;;
47153;SDS011;32907;41.412;2.164;2023-02-03T05:56:50;10.77;;;6.88;;
47153;SDS011;32907;41.412;2.164;2023-02-03T05:59:18;8.60;;;6.53;;
47153;SDS011;32907;41.412;2.164;2023-02-03T06:01:46;9.65;;;7.25;;
47153;SDS011;32907;41.412;2.164;2023-02-03T06:04:15;10.85;;;7.03;;
47153;SDS011;32907;41.412;2.164;2023-02-03T06:06:42;7.90;;;6.60;;
47153;SDS011;32907;41.412;2.164;2023-02-03T06:09:10;7.38;;;6.20;;
47153;SDS011;32907;41.412;2.164;2023-02-03T06:11:38;7.88;;;6.35;;
47153;SDS011;32907;41.412;2.164;2023-02-03T06:14:05;8.98;;;6.00;;
47153;SDS011;32907;41.412;2.164;2023-02-03T06:16:33;11.48;;;8.60;;
47153;SDS011;32907;41.412;2.164;2023-02-03T06:19:01;11.68;;;9.20;;
47153;SDS011;32907;41.412;2.164;2023-02-03T06:21:28;14.70;;;10.52;;
47153;SDS011;32907;41.412;2.164;2023-02-03T06:23:57;12.07;;;10.50;;
47153;SDS011;32907;41.412;2.164;2023-02-03T06:26:25;13.13;;;9.82;;
47153;SDS011;32907;41.412;2.164;2023-02-03T06:28:53;12.35;;;9.32;;
47153;SDS011;32907;41.412;2.164;2023-02-03T06:31:21;11.00;;;9.02;;
47153;SDS011;32907;41.412;2.164;2023-02-03T06:33:49;11.20;;;8.63;;
47153;SDS011;32907;41.412;2.164;2023-02-03T06:36:17;13.15;;;9.27;;
47153;SDS011;32907;41.412;2.164;2023-02-03T06:38:45;14.05;;;9.05;;
47153;SDS011;32907;41.412;2.164;2023-02-03T06:41:12;12.20;;;8.70;;
47153;SDS011;32907;41.412;2.164;2023-02-03T06:43:40;10.55;;;9.10;;
47153;SDS011;32907;41.412;2.164;2023-02-03T06:46:08;12.82;;;9.18;;
47153;SDS011;32907;41.412;2.164;2023-02-03T06:48:36;12.13;;;8.43;;
47153;SDS011;32907;41.412;2.164;2023-02-03T06:51:03;12.50;;;8.23;;
47153;SDS011;32907;41.412;2.164;2023-02-03T06:53:32;10.75;;;7.72;;
47153;SDS011;32907;41.412;2.164;2023-02-03T06:56:00;10.25;;;7.35;;
47153;SDS011;32907;41.412;2.164;2023-02-03T06:58:29;8.82;;;7.38;;
47153;SDS011;32907;41.412;2.164;2023-02-03T07:00:57;9.25;;;7.03;;
47153;SDS011;32907;41.412;2.164;2023-02-03T07:03:25;9.52;;;7.10;;
47153;SDS011;32907;41.412;2.164;2023-02-03T07:05:53;10.07;;;7.80;;
47153;SDS011;32907;41.412;2.164;2023-02-03T07:08:20;8.93;;;7.15;;
47153;SDS011;32907;41.412;2.164;2023-02-03T07:10:54;8.10;;;6.93;;
47153;SDS011;32907;41.412;2.164;2023-02-03T07:13:22;12.23;;;7.35;;
47153;SDS011;32907;41.412;2.164;2023-02-03T07:15:50;10.65;;;6.65;;
47153;SDS011;32907;41.412;2.164;2023-02-03T07:18:18;12.05;;;7.35;;
47153;SDS011;32907;41.412;2.164;2023-02-03T07:21:11;10.65;;;7.60;;
47153;SDS011;32907;41.412;2.164;2023-02-03T07:23:40;10.38;;;7.28;;
47153;SDS011;32907;41.412;2.164;2023-02-03T07:26:08;9.77;;;7.07;;
47153;SDS011;32907;41.412;2.164;2023-02-03T07:28:37;11.55;;;7.15;;
47153;SDS011;32907;41.412;2.164;2023-02-03T07:31:04;11.65;;;7.97;;
47153;SDS011;32907;41.412;2.164;2023-02-03T07:33:34;12.27;;;7.60;;
47153;SDS011;32907;41.412;2.164;2023-02-03T07:36:03;11.68;;;7.15;;
47153;SDS011;32907;41.412;2.164;2023-02-03T07:38:31;11.05;;;7.53;;
47153;SDS011;32907;41.412;2.164;2023-02-03T07:40:59;11.88;;;7.68;;
47153;SDS011;32907;41.412;2.164;2023-02-03T07:43:27;13.18;;;7.72;;
47153;SDS011;32907;41.412;2.164;2023-02-03T07:45:55;14.52;;;7.97;;
47153;SDS011;32907;41.412;2.164;2023-02-03T07:48:23;15.65;;;8.95;;
47153;SDS011;32907;41.412;2.164;2023-02-03T07:50:51;15.32;;;8.52;;
47153;SDS011;32907;41.412;2.164;2023-02-03T07:53:19;13.23;;;8.40;;
47153;SDS011;32907;41.412;2.164;2023-02-03T07:55:47;12.05;;;8.23;;
47153;SDS011;32907;41.412;2.164;2023-02-03T07:58:15;10.77;;;8.10;;
47153;SDS011;32907;41.412;2.164;2023-02-03T08:00:43;13.90;;;8.60;;
47153;SDS011;32907;41.412;2.164;2023-02-03T08:03:11;19.40;;;9.82;;
47153;SDS011;32907;41.412;2.164;2023-02-03T08:05:39;14.23;;;9.35;;
47153;SDS011;32907;41.412;2.164;2023-02-03T08:08:07;15.88;;;9.93;;
47153;SDS011;32907;41.412;2.164;2023-02-03T08:10:35;19.92;;;9.65;;
47153;SDS011;32907;41.412;2.164;2023-02-03T08:13:02;11.27;;;9.05;;
47153;SDS011;32907;41.412;2.164;2023-02-03T08:15:30;15.20;;;8.85;;
47153;SDS011;32907;41.412;2.164;2023-02-03T08:17:59;17.85;;;8.50;;
47153;SDS011;32907;41.412;2.164;2023-02-03T08:20:26;14.80;;;8.65;;
47153;SDS011;32907;41.412;2.164;2023-02-03T08:22:54;16.50;;;9.23;;
47153;SDS011;32907;41.412;2.164;2023-02-03T08:25:22;13.98;;;9.82;;
47153;SDS011;32907;41.412;2.164;2023-02-03T08:27:52;20.95;;;9.10;;
47153;SDS011;32907;41.412;2.164;2023-02-03T08:30:20;19.52;;;9.90;;
47153;SDS011;32907;41.412;2.164;2023-02-03T08:32:49;13.27;;;8.93;;
47153;SDS011;32907;41.412;2.164;2023-02-03T08:35:17;16.58;;;9.02;;
47153;SDS011;32907;41.412;2.164;2023-02-03T08:37:45;19.27;;;8.80;;
47153;SDS011;32907;41.412;2.164;2023-02-03T08:40:13;11.90;;;7.53;;
47153;SDS011;32907;41.412;2.164;2023-02-03T08:42:42;13.63;;;7.70;;
47153;SDS011;32907;41.412;2.164;2023-02-03T08:45:10;16.52;;;7.57;;
47153;SDS011;32907;41.412;2.164;2023-02-03T08:47:38;17.23;;;8.48;;
47153;SDS011;32907;41.412;2.164;2023-02-03T08:50:07;12.98;;;7.18;;
47153;SDS011;32907;41.412;2.164;2023-02-03T08:52:35;11.27;;;6.80;;
47153;SDS011;32907;41.412;2.164;2023-02-03T08:55:03;63.15;;;11.38;;
47153;SDS011;32907;41.412;2.164;2023-02-03T08:57:35;27.13;;;8.65;;
47153;SDS011;32907;41.412;2.164;2023-02-03T09:00:04;20.17;;;9.00;;
47153;SDS011;32907;41.412;2.164;2023-02-03T09:02:33;15.82;;;7.30;;
47153;SDS011;32907;41.412;2.164;2023-02-03T09:05:01;11.80;;;6.32;;
47153;SDS011;32907;41.412;2.164;2023-02-03T09:07:29;8.90;;;6.18;;
47153;SDS011;32907;41.412;2.164;2023-02-03T09:09:56;11.13;;;6.25;;
47153;SDS011;32907;41.412;2.164;2023-02-03T09:12:24;7.15;;;5.90;;
47153;SDS011;32907;41.412;2.164;2023-02-03T09:14:52;8.38;;;6.15;;
47153;SDS011;32907;41.412;2.164;2023-02-03T09:17:20;11.38;;;5.60;;
47153;SDS011;32907;41.412;2.164;2023-02-03T09:19:48;11.55;;;6.03;;
47153;SDS011;32907;41.412;2.164;2023-02-03T09:22:16;7.88;;;6.00;;
47153;SDS011;32907;41.412;2.164;2023-02-03T09:24:44;8.23;;;6.00;;
47153;SDS011;32907;41.412;2.164;2023-02-03T09:27:11;7.57;;;5.10;;
47153;SDS011;32907;41.412;2.164;2023-02-03T09:29:39;9.55;;;5.57;;
47153;SDS011;32907;41.412;2.164;2023-02-03T09:32:07;6.45;;;5.03;;
47153;SDS011;32907;41.412;2.164;2023-02-03T09:34:37;7.68;;;4.95;;
47153;SDS011;32907;41.412;2.164;2023-02-03T09:37:07;8.77;;;5.68;;
47153;SDS011;32907;41.412;2.164;2023-02-03T09:39:35;8.85;;;5.25;;
47153;SDS011;32907;41.412;2.164;2023-02-03T09:42:08;7.30;;;5.53;;
47153;SDS011;32907;41.412;2.164;2023-02-03T09:44:41;10.15;;;5.70;;
47153;SDS011;32907;41.412;2.164;2023-02-03T09:47:17;7.70;;;5.68;;
47153;SDS011;32907;41.412;2.164;2023-02-03T09:49:52;9.75;;;7.07;;
47153;SDS011;32907;41.412;2.164;2023-02-03T09:52:26;16.33;;;9.02;;
47153;SDS011;32907;41.412;2.164;2023-02-03T09:58:05;21.30;;;12.98;;
47153;SDS011;32907;41.412;2.164;2023-02-03T10:00:41;17.52;;;11.20;;
47153;SDS011;32907;41.412;2.164;2023-02-03T10:20:03;19.67;;;12.15;;
47153;SDS011;32907;41.412;2.164;2023-02-03T10:22:35;18.65;;;11.30;;
47153;SDS011;32907;41.412;2.164;2023-02-03T10:28:15;20.25;;;11.80;;
47153;SDS011;32907;41.412;2.164;2023-02-03T10:30:47;20.52;;;13.25;;
47153;SDS011;32907;41.412;2.164;2023-02-03T10:33:18;18.45;;;13.40;;
47153;SDS011;32907;41.412;2.164;2023-02-03T10:41:17;18.42;;;12.80;;
47153;SDS011;32907;41.412;2.164;2023-02-03T10:43:48;21.75;;;12.73;;
47153;SDS011;32907;41.412;2.164;2023-02-03T10:46:25;22.17;;;12.65;;
47153;SDS011;32907;41.412;2.164;2023-02-03T10:48:56;16.75;;;12.57;;
47153;SDS011;32907;41.412;2.164;2023-02-03T10:53:54;23.40;;;15.48;;
47153;SDS011;32907;41.412;2.164;2023-02-03T10:56:25;19.77;;;14.70;;
47153;SDS011;32907;41.412;2.164;2023-02-03T10:58:57;19.67;;;14.55;;
47153;SDS011;32907;41.412;2.164;2023-02-03T11:04:24;23.00;;;14.18;;
47153;SDS011;32907;41.412;2.164;2023-02-03T11:07:04;23.77;;;14.40;;
47153;SDS011;32907;41.412;2.164;2023-02-03T11:09:35;19.92;;;13.52;;
47153;SDS011;32907;41.412;2.164;2023-02-03T11:12:12;24.63;;;13.57;;
47153;SDS011;32907;41.412;2.164;2023-02-03T11:14:50;22.45;;;14.07;;
47153;SDS011;32907;41.412;2.164;2023-02-03T11:17:24;20.67;;;13.20;;
47153;SDS011;32907;41.412;2.164;2023-02-03T11:19:54;25.42;;;14.05;;
47153;SDS011;32907;41.412;2.164;2023-02-03T11:22:46;18.08;;;13.25;;
47153;SDS011;32907;41.412;2.164;2023-02-03T11:25:16;19.75;;;13.20;;
47153;SDS011;32907;41.412;2.164;2023-02-03T11:27:47;18.10;;;13.38;;
47153;SDS011;32907;41.412;2.164;2023-02-03T11:30:27;18.60;;;13.00;;
47153;SDS011;32907;41.412;2.164;2023-02-03T11:32:59;19.63;;;13.07;;
47153;SDS011;32907;41.412;2.164;2023-02-03T11:35:28;22.50;;;13.27;;
47153;SDS011;32907;41.412;2.164;2023-02-03T11:37:59;17.02;;;12.07;;
47153;SDS011;32907;41.412;2.164;2023-02-03T11:40:31;21.88;;;12.85;;
47153;SDS011;32907;41.412;2.164;2023-02-03T11:43:02;18.05;;;11.88;;
47153;SDS011;32907;41.412;2.164;2023-02-03T11:45:44;21.20;;;13.18;;
47153;SDS011;32907;41.412;2.164;2023-02-03T11:48:34;22.70;;;12.38;;
47153;SDS011;32907;41.412;2.164;2023-02-03T11:54:05;18.48;;;12.10;;
47153;SDS011;32907;41.412;2.164;2023-02-03T12:16:45;22.75;;;13.93;;
47153;SDS011;32907;41.412;2.164;2023-02-03T12:22:32;15.93;;;13.48;;
47153;SDS011;32907;41.412;2.164;2023-02-03T12:25:23;20.38;;;13.48;;
47153;SDS011;32907;41.412;2.164;2023-02-03T12:28:16;20.45;;;14.23;;
47153;SDS011;32907;41.412;2.164;2023-02-03T12:31:06;22.10;;;15.32;;
47153;SDS011;32907;41.412;2.164;2023-02-03T12:33:42;24.00;;;17.75;;
47153;SDS011;32907;41.412;2.164;2023-02-03T12:36:21;26.75;;;20.35;;
47153;SDS011;32907;41.412;2.164;2023-02-03T12:38:56;26.60;;;19.50;;
47153;SDS011;32907;41.412;2.164;2023-02-03T12:41:34;25.67;;;20.27;;
47153;SDS011;32907;41.412;2.164;2023-02-03T12:44:07;22.92;;;18.73;;
47153;SDS011;32907;41.412;2.164;2023-02-03T12:47:20;22.83;;;17.60;;
47153;SDS011;32907;41.412;2.164;2023-02-03T12:49:49;21.55;;;17.10;;
47153;SDS011;32907;41.412;2.164;2023-02-03T13:00:50;12.75;;;9.32;;
47153;SDS011;32907;41.412;2.164;2023-02-03T13:06:15;10.30;;;9.20;;
47153;SDS011;32907;41.412;2.164;2023-02-03T13:09:02;10.15;;;8.20;;
47153;SDS011;32907;41.412;2.164;2023-02-03T13:14:49;13.15;;;10.13;;
47153;SDS011;32907;41.412;2.164;2023-02-03T13:17:26;24.30;;;20.48;;
47153;SDS011;32907;41.412;2.164;2023-02-03T13:20:21;30.02;;;24.60;;
47153;SDS011;32907;41.412;2.164;2023-02-03T13:22:53;52.53;;;32.97;;
47153;SDS011;32907;41.412;2.164;2023-02-03T13:28:10;58.70;;;34.55;;
47153;SDS011;32907;41.412;2.164;2023-02-03T13:31:08;42.78;;;29.23;;
47153;SDS011;32907;41.412;2.164;2023-02-03T13:44:54;48.53;;;37.70;;
47153;SDS011;32907;41.412;2.164;2023-02-03T13:47:29;43.42;;;33.80;;
47153;SDS011;32907;41.412;2.164;2023-02-03T13:50:03;36.30;;;30.08;;
47153;SDS011;32907;41.412;2.164;2023-02-03T13:52:44;30.45;;;23.98;;
47153;SDS011;32907;41.412;2.164;2023-02-03T13:55:24;24.67;;;21.00;;
47153;SDS011;32907;41.412;2.164;2023-02-03T13:57:59;26.40;;;20.10;;
47153;SDS011;32907;41.412;2.164;2023-02-03T14:03:15;21.92;;;16.25;;
47153;SDS011;32907;41.412;2.164;2023-02-03T14:06:09;23.35;;;16.52;;
47153;SDS011;32907;41.412;2.164;2023-02-03T14:14:42;22.40;;;17.05;;
47153;SDS011;32907;41.412;2.164;2023-02-03T14:20:02;24.52;;;16.98;;
47153;SDS011;32907;41.412;2.164;2023-02-03T14:22:58;22.33;;;15.15;;
47153;SDS011;32907;41.412;2.164;2023-02-03T14:25:50;20.48;;;13.40;;
47153;SDS011;32907;41.412;2.164;2023-02-03T14:28:22;15.98;;;12.65;;
47153;SDS011;32907;41.412;2.164;2023-02-03T14:31:19;17.88;;;11.88;;
47153;SDS011;32907;41.412;2.164;2023-02-03T14:33:52;14.38;;;10.68;;
47153;SDS011;32907;41.412;2.164;2023-02-03T14:39:02;17.10;;;9.90;;
47153;SDS011;32907;41.412;2.164;2023-02-03T14:58:06;16.35;;;10.43;;
47153;SDS011;32907;41.412;2.164;2023-02-03T15:00:49;16.52;;;9.98;;
47153;SDS011;32907;41.412;2.164;2023-02-03T15:03:24;16.98;;;9.40;;
47153;SDS011;32907;41.412;2.164;2023-02-03T15:05:58;16.33;;;10.20;;
47153;SDS011;32907;41.412;2.164;2023-02-03T15:08:35;15.18;;;10.13;;
47153;SDS011;32907;41.412;2.164;2023-02-03T15:14:26;20.35;;;10.20;;
47153;SDS011;32907;41.412;2.164;2023-02-03T15:16:59;18.27;;;10.95;;
47153;SDS011;32907;41.412;2.164;2023-02-03T15:19:37;20.13;;;10.55;;
47153;SDS011;32907;41.412;2.164;2023-02-03T15:22:23;15.70;;;10.60;;
47153;SDS011;32907;41.412;2.164;2023-02-03T15:25:00;15.68;;;9.75;;
47153;SDS011;32907;41.412;2.164;2023-02-03T15:27:46;11.82;;;8.90;;
47153;SDS011;32907;41.412;2.164;2023-02-03T15:30:20;13.95;;;9.30;;
47153;SDS011;32907;41.412;2.164;2023-02-03T15:33:01;17.13;;;10.07;;
47153;SDS011;32907;41.412;2.164;2023-02-03T15:35:31;12.80;;;9.02;;
47153;SDS011;32907;41.412;2.164;2023-02-03T15:38:05;12.55;;;8.65;;
47153;SDS011;32907;41.412;2.164;2023-02-03T15:40:54;14.93;;;10.05;;
47153;SDS011;32907;41.412;2.164;2023-02-03T15:43:32;14.77;;;10.65;;
47153;SDS011;32907;41.412;2.164;2023-02-03T15:46:07;13.70;;;10.30;;
47153;SDS011;32907;41.412;2.164;2023-02-03T15:48:54;15.38;;;10.60;;
47153;SDS011;32907;41.412;2.164;2023-02-03T15:51:30;19.98;;;10.98;;
47153;SDS011;32907;41.412;2.164;2023-02-03T15:54:04;14.70;;;10.00;;
47153;SDS011;32907;41.412;2.164;2023-02-03T16:01:57;14.63;;;10.10;;
47153;SDS011;32907;41.412;2.164;2023-02-03T16:04:28;14.68;;;9.52;;
47153;SDS011;32907;41.412;2.164;2023-02-03T16:06:57;16.10;;;10.38;;
47153;SDS011;32907;41.412;2.164;2023-02-03T16:09:32;16.85;;;10.13;;
47153;SDS011;32907;41.412;2.164;2023-02-03T16:14:51;13.10;;;10.02;;
47153;SDS011;32907;41.412;2.164;2023-02-03T16:17:24;17.77;;;10.73;;
47153;SDS011;32907;41.412;2.164;2023-02-03T16:22:38;16.45;;;9.90;;
47153;SDS011;32907;41.412;2.164;2023-02-03T16:25:19;14.95;;;9.65;;
47153;SDS011;32907;41.412;2.164;2023-02-03T16:27:57;14.00;;;9.48;;
47153;SDS011;32907;41.412;2.164;2023-02-03T16:31:18;13.57;;;9.90;;
47153;SDS011;32907;41.412;2.164;2023-02-03T16:34:14;13.23;;;9.60;;
47153;SDS011;32907;41.412;2.164;2023-02-03T16:37:12;13.98;;;10.10;;
47153;SDS011;32907;41.412;2.164;2023-02-03T16:40:22;17.80;;;10.32;;
47153;SDS011;32907;41.412;2.164;2023-02-03T16:43:12;15.07;;;10.43;;
47153;SDS011;32907;41.412;2.164;2023-02-03T16:46:00;18.20;;;10.30;;
47153;SDS011;32907;41.412;2.164;2023-02-03T16:48:47;16.77;;;10.30;;
47153;SDS011;32907;41.412;2.164;2023-02-03T16:51:36;14.70;;;10.20;;
47153;SDS011;32907;41.412;2.164;2023-02-03T16:54:08;14.98;;;9.85;;
47153;SDS011;32907;41.412;2.164;2023-02-03T16:56:40;16.13;;;10.13;;
47153;SDS011;32907;41.412;2.164;2023-02-03T16:59:08;16.10;;;9.43;;
47153;SDS011;32907;41.412;2.164;2023-02-03T17:01:37;13.50;;;9.18;;
47153;SDS011;32907;41.412;2.164;2023-02-03T17:04:09;17.40;;;8.75;;
47153;SDS011;32907;41.412;2.164;2023-02-03T17:06:39;12.95;;;8.60;;
47153;SDS011;32907;41.412;2.164;2023-02-03T17:09:07;12.30;;;8.40;;
47153;SDS011;32907;41.412;2.164;2023-02-03T17:11:35;16.95;;;9.13;;
47153;SDS011;32907;41.412;2.164;2023-02-03T17:14:03;13.45;;;9.48;;
47153;SDS011;32907;41.412;2.164;2023-02-03T17:16:31;14.00;;;10.48;;
47153;SDS011;32907;41.412;2.164;2023-02-03T17:19:01;12.73;;;8.75;;
47153;SDS011;32907;41.412;2.164;2023-02-03T17:21:29;12.93;;;8.57;;
47153;SDS011;32907;41.412;2.164;2023-02-03T17:23:58;12.68;;;8.45;;
47153;SDS011;32907;41.412;2.164;2023-02-03T17:26:26;13.02;;;8.68;;
47153;SDS011;32907;41.412;2.164;2023-02-03T17:28:54;13.95;;;8.80;;
47153;SDS011;32907;41.412;2.164;2023-02-03T17:31:22;12.15;;;8.65;;
47153;SDS011;32907;41.412;2.164;2023-02-03T17:33:51;12.95;;;8.23;;
47153;SDS011;32907;41.412;2.164;2023-02-03T17:36:19;13.60;;;8.65;;
47153;SDS011;32907;41.412;2.164;2023-02-03T17:41:34;10.55;;;7.40;;
47153;SDS011;32907;41.412;2.164;2023-02-03T17:44:20;13.32;;;8.48;;
47153;SDS011;32907;41.412;2.164;2023-02-03T17:47:05;12.15;;;8.68;;
47153;SDS011;32907;41.412;2.164;2023-02-03T17:49:50;9.98;;;8.02;;
47153;SDS011;32907;41.412;2.164;2023-02-03T17:52:35;13.75;;;8.48;;
47153;SDS011;32907;41.412;2.164;2023-02-03T17:55:20;12.73;;;8.13;;